createdAt,value
2024-01-11T00:02:19.642Z,9.20
2024-01-11T00:04:48.068Z,8.55
2024-01-11T00:07:17.848Z,7.78
2024-01-11T00:09:46.275Z,9.45
2024-01-11T00:12:14.809Z,10.27
2024-01-11T00:14:43.242Z,10.05
2024-01-11T00:17:11.716Z,10.52
2024-01-11T00:19:40.319Z,9.90
2024-01-11T00:22:08.815Z,7.27
2024-01-11T00:24:39.731Z,8.02
2024-01-11T00:27:08.323Z,8.57
2024-01-11T00:29:38.181Z,10.60
2024-01-11T00:32:07.155Z,8.38
2024-01-11T00:34:37.217Z,7.47
2024-01-11T00:37:06.068Z,9.52
2024-01-11T00:39:34.385Z,8.90
2024-01-11T00:42:04.173Z,7.97
2024-01-11T00:44:32.582Z,8.75
2024-01-11T00:47:00.992Z,10.40
2024-01-11T00:49:29.423Z,8.27
2024-01-11T00:51:57.789Z,9.48
2024-01-11T00:54:26.229Z,9.30
2024-01-11T00:56:54.613Z,7.25
2024-01-11T00:59:24.359Z,8.45
2024-01-11T01:01:53.033Z,8.55
2024-01-11T01:04:21.458Z,6.88
2024-01-11T01:06:49.955Z,7.13
2024-01-11T01:09:18.313Z,7.55
2024-01-11T01:11:46.789Z,7.57
2024-01-11T01:14:15.347Z,7.30
2024-01-11T01:16:45.003Z,8.80
2024-01-11T01:19:13.474Z,7.13
2024-01-11T01:21:42.029Z,8.15
2024-01-11T01:24:10.728Z,7.40
2024-01-11T01:26:39.224Z,6.72
2024-01-11T01:29:07.644Z,7.55
2024-01-11T01:31:38.699Z,7.85
2024-01-11T01:34:09.928Z,8.98
2024-01-11T01:36:38.461Z,8.93
2024-01-11T01:39:06.881Z,9.20
2024-01-11T01:41:35.324Z,6.20
2024-01-11T01:44:03.874Z,5.93
2024-01-11T01:46:32.465Z,8.55
2024-01-11T01:49:01.365Z,7.60
2024-01-11T01:51:33.128Z,5.60
2024-01-11T01:54:02.268Z,7.38
2024-01-11T01:56:31.395Z,7.53
2024-01-11T01:59:03.012Z,8.57
2024-01-11T02:01:32.270Z,6.03
2024-01-11T02:04:01.502Z,6.57
2024-01-11T02:06:34.936Z,6.82
2024-01-11T02:09:05.228Z,6.53
2024-01-11T02:11:33.707Z,7.30
2024-01-11T02:14:02.599Z,8.13
2024-01-11T02:16:30.957Z,7.15
2024-01-11T02:18:59.439Z,6.13
2024-01-11T02:21:33.173Z,5.85
2024-01-11T02:24:10.114Z,5.72
2024-01-11T02:26:38.623Z,5.55
2024-01-11T02:29:06.971Z,5.93
2024-01-11T02:31:35.555Z,6.47
2024-01-11T02:34:04.029Z,7.82
2024-01-11T02:36:32.668Z,7.18
2024-01-11T02:39:01.524Z,6.00
2024-01-11T02:41:31.782Z,6.30
2024-01-11T02:44:01.132Z,8.80
2024-01-11T02:46:29.475Z,6.22
2024-01-11T02:48:58.045Z,6.90
2024-01-11T02:51:26.433Z,5.72
2024-01-11T02:53:54.846Z,6.22
2024-01-11T02:56:24.819Z,7.93
2024-01-11T02:58:54.573Z,7.05
2024-01-11T03:01:22.974Z,6.82
2024-01-11T03:03:52.892Z,6.00
2024-01-11T03:06:23.503Z,7.00
2024-01-11T03:08:51.996Z,6.20
2024-01-11T03:11:20.454Z,6.05
2024-01-11T03:13:48.825Z,7.03
2024-01-11T03:16:18.641Z,6.53
2024-01-11T03:18:47.128Z,7.45
2024-01-11T03:21:15.669Z,5.22
2024-01-11T03:23:44.516Z,5.65
2024-01-11T03:26:16.621Z,7.47
2024-01-11T03:28:45.572Z,5.85
2024-01-11T03:31:14.113Z,6.45
2024-01-11T03:33:43.972Z,5.93
2024-01-11T03:36:13.810Z,7.63
2024-01-11T03:38:42.330Z,6.47
2024-01-11T03:41:12.026Z,5.15
2024-01-11T03:43:40.708Z,7.28
2024-01-11T03:46:09.301Z,5.30
2024-01-11T03:48:38.175Z,5.88
2024-01-11T03:51:08.425Z,5.63
2024-01-11T03:53:38.972Z,6.55
2024-01-11T03:56:07.875Z,5.50
2024-01-11T03:58:40.154Z,5.00
2024-01-11T04:01:10.806Z,6.07
2024-01-11T04:03:39.628Z,6.15
2024-01-11T04:06:09.718Z,5.30
2024-01-11T04:08:38.499Z,5.82
2024-01-11T04:11:06.906Z,6.15
2024-01-11T04:13:35.298Z,5.05
2024-01-11T04:16:07.523Z,4.75
2024-01-11T04:18:36.353Z,5.85
2024-01-11T04:21:05.528Z,5.72
2024-01-11T04:23:36.047Z,7.07
2024-01-11T04:26:04.971Z,4.22
2024-01-11T04:28:33.411Z,6.65
2024-01-11T04:31:01.748Z,5.82
2024-01-11T04:33:30.237Z,6.45
2024-01-11T04:35:58.792Z,4.32
2024-01-11T04:38:27.320Z,5.20
2024-01-11T04:40:57.080Z,4.90
2024-01-11T04:43:25.429Z,5.68
2024-01-11T04:45:54.040Z,5.55
2024-01-11T04:48:22.552Z,5.30
2024-01-11T04:50:51.017Z,5.47
2024-01-11T04:53:19.638Z,4.80
2024-01-11T04:55:47.974Z,6.03
2024-01-11T04:58:17.790Z,5.57
2024-01-11T05:00:46.214Z,6.70
2024-01-11T05:03:14.646Z,5.07
2024-01-11T05:05:43.291Z,6.78
2024-01-11T05:08:11.724Z,5.53
2024-01-11T05:10:40.075Z,5.07
2024-01-11T05:13:08.398Z,5.82
2024-01-11T05:15:38.539Z,4.75
2024-01-11T05:18:07.160Z,4.35
2024-01-11T05:20:35.782Z,4.68
2024-01-11T05:23:04.303Z,5.35
2024-01-11T05:25:34.645Z,4.05
2024-01-11T05:28:03.487Z,4.82
2024-01-11T05:30:32.255Z,5.20
2024-01-11T05:33:02.158Z,3.90
2024-01-11T05:35:30.797Z,3.72
2024-01-11T05:37:59.217Z,4.55
2024-01-11T05:40:28.377Z,4.53
2024-01-11T05:42:56.805Z,4.07
2024-01-11T05:45:31.787Z,4.65
2024-01-11T05:48:07.211Z,4.20
2024-01-11T05:50:35.707Z,5.47
2024-01-11T05:53:04.352Z,4.80
2024-01-11T05:55:32.744Z,3.35
2024-01-11T05:58:01.133Z,4.63
2024-01-11T06:00:29.599Z,3.58
2024-01-11T06:02:58.082Z,4.75
2024-01-11T06:05:28.084Z,4.60
2024-01-11T06:07:56.587Z,5.05
2024-01-11T06:10:24.892Z,5.15
2024-01-11T06:12:53.260Z,3.83
2024-01-11T06:15:21.714Z,4.78
2024-01-11T06:17:50.372Z,4.32
2024-01-11T06:20:18.874Z,5.68
2024-01-11T06:22:48.730Z,3.60
2024-01-11T06:25:17.467Z,3.58
2024-01-11T06:27:45.919Z,4.38
2024-01-11T06:30:15.463Z,3.45
2024-01-11T06:32:44.198Z,3.75
2024-01-11T06:35:12.692Z,4.30
2024-01-11T06:37:41.211Z,5.07
2024-01-11T06:40:12.472Z,3.83
2024-01-11T06:42:41.192Z,4.40
2024-01-11T06:45:11.520Z,4.63
2024-01-11T06:47:40.173Z,2.97
2024-01-11T06:50:10.729Z,4.13
2024-01-11T06:52:39.131Z,4.20
2024-01-11T06:55:11.449Z,3.88
2024-01-11T06:57:40.145Z,2.55
2024-01-11T07:00:10.162Z,4.40
2024-01-11T07:02:41.354Z,3.28
2024-01-11T07:05:10.351Z,3.47
2024-01-11T07:07:39.182Z,3.35
2024-01-11T07:10:10.304Z,4.78
2024-01-11T07:12:38.974Z,5.22
2024-01-11T07:15:09.074Z,6.95
2024-01-11T07:17:37.807Z,4.68
2024-01-11T07:20:08.961Z,4.93
2024-01-11T07:22:39.757Z,3.28
2024-01-11T07:25:11.696Z,4.20
2024-01-11T07:27:40.041Z,3.33
2024-01-11T07:30:10.400Z,4.25
2024-01-11T07:32:39.323Z,3.05
2024-01-11T07:35:13.374Z,3.10
2024-01-11T07:37:43.792Z,3.30
2024-01-11T07:40:14.606Z,3.00
2024-01-11T07:42:44.033Z,3.35
2024-01-11T07:45:12.921Z,2.47
2024-01-11T07:47:42.005Z,2.67
2024-01-11T07:50:11.897Z,3.15
2024-01-11T07:52:42.519Z,4.72
2024-01-11T07:55:14.183Z,3.15
2024-01-11T07:57:43.072Z,3.45
2024-01-11T08:00:12.088Z,3.38
2024-01-11T08:02:43.594Z,2.60
2024-01-11T08:05:12.757Z,2.75
2024-01-11T08:07:43.180Z,3.47
2024-01-11T08:10:13.299Z,2.85
2024-01-11T08:12:41.706Z,3.25
2024-01-11T08:15:13.570Z,2.67
2024-01-11T08:17:48.281Z,3.28
2024-01-11T08:20:17.233Z,3.28
2024-01-11T08:22:47.237Z,3.22
2024-01-11T08:25:17.385Z,4.72
2024-01-11T08:27:45.717Z,4.97
2024-01-11T08:30:14.832Z,3.15
2024-01-11T08:32:43.752Z,2.83
2024-01-11T08:35:13.891Z,3.40
2024-01-11T08:37:42.506Z,3.17
2024-01-11T08:40:12.114Z,2.30
2024-01-11T08:42:42.510Z,2.88
2024-01-11T08:45:11.886Z,3.28
2024-01-11T08:47:41.502Z,2.67
2024-01-11T08:50:14.142Z,2.00
2024-01-11T08:52:43.484Z,2.38
2024-01-11T08:55:13.816Z,3.10
2024-01-11T08:57:43.629Z,2.30
2024-01-11T09:00:18.308Z,3.38
2024-01-11T09:02:46.901Z,2.15
2024-01-11T09:05:17.288Z,2.28
2024-01-11T09:07:46.043Z,2.78
2024-01-11T09:10:15.502Z,2.80
2024-01-11T09:12:45.344Z,2.60
2024-01-11T09:15:13.609Z,3.05
2024-01-11T09:17:42.180Z,2.80
2024-01-11T09:20:15.268Z,2.60
2024-01-11T09:22:43.779Z,2.40
2024-01-11T09:25:12.074Z,1.83
2024-01-11T09:27:40.654Z,2.10
2024-01-11T09:30:11.689Z,2.97
2024-01-11T09:32:40.318Z,2.72
2024-01-11T09:35:11.849Z,2.50
2024-01-11T09:37:43.845Z,2.55
2024-01-11T09:40:12.846Z,2.75
2024-01-11T09:42:42.151Z,2.17
2024-01-11T09:45:16.618Z,2.08
2024-01-11T09:47:46.932Z,2.00
2024-01-11T09:50:18.610Z,2.25
2024-01-11T09:52:49.482Z,2.00
2024-01-11T09:55:18.309Z,2.42
2024-01-11T09:57:49.304Z,2.10
2024-01-11T10:00:25.038Z,2.03
2024-01-11T10:02:54.590Z,2.33
2024-01-11T10:05:23.160Z,3.78
2024-01-11T10:07:51.552Z,2.95
2024-01-11T10:10:19.882Z,2.17
2024-01-11T10:12:50.722Z,1.88
2024-01-11T10:15:20.456Z,2.67
2024-01-11T10:17:49.243Z,2.60
2024-01-11T10:20:18.935Z,2.15
2024-01-11T10:22:49.386Z,2.38
2024-01-11T10:25:19.094Z,2.80
2024-01-11T10:27:47.877Z,3.38
2024-01-11T10:30:20.342Z,2.53
2024-01-11T10:32:49.686Z,2.30
2024-01-11T10:35:19.840Z,3.03
2024-01-11T10:37:54.580Z,2.90
2024-01-11T10:40:26.296Z,2.45
2024-01-11T10:42:55.123Z,2.15
2024-01-11T10:45:26.050Z,2.53
2024-01-11T10:48:00.680Z,2.83
2024-01-11T10:50:36.721Z,2.65
2024-01-11T10:53:14.638Z,2.78
2024-01-11T10:55:44.452Z,3.50
2024-01-11T10:58:14.540Z,2.63
2024-01-11T11:00:44.465Z,2.60
2024-01-11T11:03:14.736Z,3.67
2024-01-11T11:05:44.052Z,3.53
2024-01-11T11:08:13.521Z,3.25
2024-01-11T11:10:44.027Z,2.20
2024-01-11T11:13:14.475Z,4.10
2024-01-11T11:15:47.817Z,3.53
2024-01-11T11:18:17.292Z,3.83
2024-01-11T11:20:46.062Z,4.63
2024-01-11T11:23:18.560Z,3.10
2024-01-11T11:25:49.584Z,5.28
2024-01-11T11:28:20.156Z,5.30
2024-01-11T11:30:53.177Z,7.55
2024-01-11T11:33:25.483Z,7.25
2024-01-11T11:35:56.241Z,8.07
2024-01-11T11:38:26.771Z,7.75
2024-01-11T11:40:56.879Z,8.25
2024-01-11T11:43:25.817Z,5.65
2024-01-11T11:45:58.838Z,7.50
2024-01-11T11:48:55.559Z,6.15
2024-01-11T11:51:27.843Z,5.97
2024-01-11T11:53:57.956Z,5.75
2024-01-11T11:56:26.854Z,8.50
2024-01-11T11:58:56.258Z,4.05
2024-01-11T12:01:26.568Z,5.47
2024-01-11T12:03:55.390Z,4.30
2024-01-11T12:06:26.305Z,6.10
2024-01-11T12:08:57.890Z,5.45
2024-01-11T12:11:27.989Z,4.38
2024-01-11T12:13:58.733Z,3.92
2024-01-11T12:16:29.731Z,6.38
2024-01-11T12:18:58.238Z,5.28
2024-01-11T12:21:27.316Z,4.32
2024-01-11T12:23:56.008Z,4.32
2024-01-11T12:26:24.969Z,3.50
2024-01-11T12:28:54.151Z,4.10
2024-01-11T12:31:24.417Z,6.38
2024-01-11T12:33:56.095Z,4.30
2024-01-11T12:36:25.227Z,3.95
2024-01-11T12:38:54.180Z,3.25
2024-01-11T12:41:25.196Z,4.95
2024-01-11T12:43:54.689Z,4.18
2024-01-11T12:46:23.773Z,4.63
2024-01-11T12:48:53.909Z,5.43
2024-01-11T12:51:23.531Z,3.70
2024-01-11T12:53:55.173Z,3.25
2024-01-11T12:56:24.419Z,3.63
2024-01-11T12:58:53.395Z,3.17
2024-01-11T13:01:22.509Z,3.50
2024-01-11T13:03:51.650Z,2.97
2024-01-11T13:06:21.919Z,3.70
2024-01-11T13:08:50.396Z,3.75
2024-01-11T13:11:22.262Z,4.35
2024-01-11T13:13:50.837Z,3.72
2024-01-11T13:16:20.333Z,3.53
2024-01-11T13:18:49.402Z,3.92
2024-01-11T13:21:18.134Z,3.05
2024-01-11T13:23:48.065Z,4.30
2024-01-11T13:26:16.663Z,3.67
2024-01-11T13:28:45.028Z,5.07
2024-01-11T13:31:13.526Z,3.92
2024-01-11T13:33:41.981Z,3.10
2024-01-11T13:36:10.550Z,3.78
2024-01-11T13:38:39.402Z,3.58
2024-01-11T13:41:10.041Z,4.95
2024-01-11T13:43:38.683Z,3.55
2024-01-11T13:46:07.190Z,3.72
2024-01-11T13:48:36.423Z,3.20
2024-01-11T13:51:05.668Z,4.20
2024-01-11T13:53:34.247Z,3.17
2024-01-11T13:56:03.089Z,3.40
2024-01-11T13:58:33.215Z,3.33
2024-01-11T14:01:01.624Z,3.13
2024-01-11T14:03:30.144Z,3.85
2024-01-11T14:05:59.195Z,4.72
2024-01-11T14:08:28.248Z,4.10
2024-01-11T14:10:57.456Z,3.80
2024-01-11T14:13:26.050Z,4.20
2024-01-11T14:15:56.075Z,3.35
2024-01-11T14:18:25.662Z,3.35
2024-01-11T14:20:54.728Z,3.53
2024-01-11T14:23:23.478Z,4.35
2024-01-11T14:25:51.872Z,2.78
2024-01-11T14:28:20.247Z,3.00
2024-01-11T14:30:49.769Z,2.95
2024-01-11T14:33:21.222Z,2.80
2024-01-11T14:35:49.841Z,3.75
2024-01-11T14:38:18.499Z,4.28
2024-01-11T14:40:47.540Z,3.20
2024-01-11T14:43:16.186Z,3.40
2024-01-11T14:45:44.545Z,2.80
2024-01-11T14:48:13.688Z,3.20
2024-01-11T14:50:43.843Z,3.53
2024-01-11T14:53:12.211Z,6.10
2024-01-11T14:55:40.705Z,2.40
2024-01-11T14:58:10.116Z,4.72
2024-01-11T15:00:38.463Z,3.20
2024-01-11T15:03:07.591Z,6.55
2024-01-11T15:05:37.335Z,2.65
2024-01-11T15:08:07.662Z,3.85
2024-01-11T15:10:36.234Z,3.92
2024-01-11T15:13:04.883Z,4.40
2024-01-11T15:15:33.665Z,3.72
2024-01-11T15:18:02.453Z,4.03
2024-01-11T15:20:30.910Z,2.83
2024-01-11T15:22:59.565Z,3.53
2024-01-11T15:25:29.449Z,3.90
2024-01-11T15:27:57.874Z,3.85
2024-01-11T15:30:26.605Z,3.75
2024-01-11T15:32:56.343Z,4.70
2024-01-11T15:35:26.389Z,3.60
2024-01-11T15:37:54.884Z,2.53
2024-01-11T15:40:23.321Z,3.17
2024-01-11T15:42:53.037Z,3.63
2024-01-11T15:45:21.850Z,4.95
2024-01-11T15:47:50.354Z,4.22
2024-01-11T15:50:18.752Z,3.83
2024-01-11T15:52:47.220Z,3.00
2024-01-11T15:55:15.802Z,2.53
2024-01-11T15:57:44.166Z,2.90
2024-01-11T16:00:15.678Z,4.90
2024-01-11T16:02:44.510Z,6.90
2024-01-11T16:05:12.998Z,4.55
2024-01-11T16:07:41.887Z,4.70
2024-01-11T16:10:11.671Z,4.03
2024-01-11T16:12:40.319Z,3.83
2024-01-11T16:15:10.953Z,4.85
2024-01-11T16:17:40.897Z,3.22
2024-01-11T16:20:12.312Z,3.55
2024-01-11T16:22:40.865Z,3.38
2024-01-11T16:25:09.882Z,4.80
2024-01-11T16:27:39.573Z,4.63
2024-01-11T16:30:09.431Z,6.22
2024-01-11T16:32:38.425Z,4.18
2024-01-11T16:35:09.808Z,3.40
2024-01-11T16:37:38.241Z,3.63
2024-01-11T16:40:10.957Z,3.80
2024-01-11T16:42:39.713Z,2.67
2024-01-11T16:45:10.953Z,3.05
2024-01-11T16:47:40.035Z,3.80
2024-01-11T16:50:11.053Z,3.10
2024-01-11T16:52:40.424Z,5.20
2024-01-11T16:55:10.290Z,3.83
2024-01-11T16:57:38.683Z,3.15
2024-01-11T17:00:09.331Z,3.38
2024-01-11T17:02:37.785Z,2.28
2024-01-11T17:05:06.822Z,3.45
2024-01-11T17:07:36.715Z,3.95
2024-01-11T17:10:06.192Z,3.67
2024-01-11T17:12:34.506Z,3.90
2024-01-11T17:15:03.284Z,4.78
2024-01-11T17:17:31.927Z,3.35
2024-01-11T17:20:00.621Z,3.58
2024-01-11T17:22:29.078Z,3.42
2024-01-11T17:24:58.997Z,2.38
2024-01-11T17:27:27.312Z,5.20
2024-01-11T17:29:55.674Z,2.85
2024-01-11T17:32:24.303Z,2.35
2024-01-11T17:34:54.162Z,3.30
2024-01-11T17:37:23.111Z,2.65
2024-01-11T17:39:52.222Z,2.85
2024-01-11T17:42:22.081Z,2.90
2024-01-11T17:44:50.919Z,3.08
2024-01-11T17:47:19.621Z,2.60
2024-01-11T17:49:48.244Z,3.22
2024-01-11T17:52:17.351Z,3.17
2024-01-11T17:54:47.297Z,3.70
2024-01-11T17:57:18.041Z,3.67
2024-01-11T17:59:48.281Z,2.63
2024-01-11T18:02:16.760Z,3.28
2024-01-11T18:04:45.503Z,3.88
2024-01-11T18:07:14.093Z,7.63
2024-01-11T18:09:42.705Z,4.97
2024-01-11T18:12:11.152Z,5.40
2024-01-11T18:14:39.605Z,3.90
2024-01-11T18:17:09.428Z,5.20
2024-01-11T18:19:37.826Z,3.30
2024-01-11T18:22:06.606Z,4.03
2024-01-11T18:27:37.331Z,8.32
2024-01-11T18:30:07.209Z,4.90
2024-01-11T18:32:36.955Z,4.45
2024-01-11T18:35:06.084Z,4.35
2024-01-11T18:37:34.382Z,5.45
2024-01-11T18:40:02.900Z,4.53
2024-01-11T18:42:31.519Z,4.97
2024-01-11T18:45:00.194Z,3.38
2024-01-11T18:47:29.303Z,3.85
2024-01-11T18:49:59.128Z,6.57
2024-01-11T18:52:28.355Z,8.25
2024-01-11T18:55:05.242Z,7.95
2024-01-11T18:57:41.319Z,9.05
2024-01-11T19:00:11.470Z,6.57
2024-01-11T19:02:40.067Z,9.25
2024-01-11T19:05:14.044Z,10.25
2024-01-11T19:07:43.042Z,12.23
2024-01-11T19:10:12.023Z,10.15
2024-01-11T19:12:40.555Z,12.00
2024-01-11T19:15:10.312Z,8.48
2024-01-11T19:17:38.788Z,7.03
2024-01-11T19:20:10.500Z,7.93
2024-01-11T19:22:38.981Z,8.00
2024-01-11T19:25:07.921Z,5.10
2024-01-11T19:27:37.287Z,5.88
2024-01-11T19:30:09.070Z,6.90
2024-01-11T19:32:38.021Z,6.75
2024-01-11T19:35:09.364Z,4.50
2024-01-11T19:37:37.858Z,4.82
2024-01-11T19:40:08.158Z,5.97
2024-01-11T19:42:36.679Z,5.18
2024-01-11T19:45:06.220Z,4.70
2024-01-11T19:47:37.982Z,6.15
2024-01-11T19:50:09.677Z,3.88
2024-01-11T19:52:39.681Z,5.72
2024-01-11T19:55:09.103Z,4.03
2024-01-11T19:57:37.729Z,5.07
2024-01-11T20:00:08.324Z,3.72
2024-01-11T20:02:39.574Z,4.03
2024-01-11T20:05:08.777Z,4.10
2024-01-11T20:07:37.189Z,8.60
2024-01-11T20:10:08.182Z,4.65
2024-01-11T20:12:37.803Z,4.47
2024-01-11T20:15:09.357Z,4.63
2024-01-11T20:17:39.277Z,4.47
2024-01-11T20:20:10.321Z,4.40
2024-01-11T20:22:38.773Z,5.30
2024-01-11T20:25:09.420Z,5.57
2024-01-11T20:27:37.891Z,6.35
2024-01-11T20:30:11.030Z,6.55
2024-01-11T20:32:40.995Z,5.03
2024-01-11T20:35:10.377Z,5.50
2024-01-11T20:37:41.266Z,6.78
2024-01-11T20:40:12.340Z,4.30
2024-01-11T20:42:40.781Z,5.40
2024-01-11T20:45:10.064Z,7.00
2024-01-11T20:47:38.679Z,7.20
2024-01-11T20:50:08.811Z,4.85
2024-01-11T20:52:37.422Z,7.22
2024-01-11T20:55:06.318Z,3.72
2024-01-11T20:57:36.116Z,4.40
2024-01-11T21:00:09.498Z,18.42
2024-01-11T21:02:38.663Z,24.25
2024-01-11T21:05:08.077Z,24.95
2024-01-11T21:07:37.395Z,23.88
2024-01-11T21:10:07.069Z,47.25
2024-01-11T21:12:36.796Z,49.47
2024-01-11T21:15:06.785Z,41.17
2024-01-11T21:17:35.859Z,36.90
2024-01-11T21:20:04.555Z,31.50
2024-01-11T21:22:33.025Z,31.92
2024-01-11T21:25:01.377Z,22.88
2024-01-11T21:27:29.827Z,23.90
2024-01-11T21:29:59.734Z,27.90
2024-01-11T21:32:28.298Z,24.17
2024-01-11T21:34:56.841Z,22.77
2024-01-11T21:37:25.306Z,20.90
2024-01-11T21:39:54.838Z,22.23
2024-01-11T21:42:23.318Z,27.00
2024-01-11T21:44:53.004Z,17.95
2024-01-11T21:47:22.784Z,20.38
2024-01-11T21:49:51.831Z,20.50
2024-01-11T21:52:21.305Z,14.95
2024-01-11T21:54:49.630Z,14.27
2024-01-11T21:57:18.206Z,10.88
2024-01-11T21:59:46.597Z,8.55
2024-01-11T22:02:15.034Z,7.05
2024-01-11T22:04:44.887Z,5.97
2024-01-11T22:07:13.451Z,9.90
2024-01-11T22:09:43.484Z,7.00
2024-01-11T22:12:11.867Z,7.50
2024-01-11T22:14:40.582Z,7.00
2024-01-11T22:17:10.178Z,8.40
2024-01-11T22:19:38.756Z,4.72
2024-01-11T22:22:09.838Z,4.97
2024-01-11T22:24:38.228Z,4.65
2024-01-11T22:27:06.614Z,5.88
2024-01-11T22:29:35.092Z,2.95
2024-01-11T22:32:03.534Z,3.97
2024-01-11T22:34:31.927Z,4.93
2024-01-11T22:37:00.255Z,3.75
2024-01-11T22:39:29.993Z,3.58
2024-01-11T22:41:58.383Z,3.53
2024-01-11T22:44:26.811Z,4.47
2024-01-11T22:46:55.605Z,3.30
2024-01-11T22:49:24.042Z,3.03
2024-01-11T22:51:52.474Z,3.25
2024-01-11T22:54:20.797Z,4.25
2024-01-11T22:56:54.931Z,3.17
2024-01-11T22:59:23.703Z,4.75
2024-01-11T23:01:52.455Z,5.57
2024-01-11T23:04:20.804Z,6.50
2024-01-11T23:06:49.284Z,2.67
2024-01-11T23:09:17.899Z,3.92
2024-01-11T23:11:47.022Z,3.08
2024-01-11T23:14:19.388Z,3.55
2024-01-11T23:16:47.825Z,3.03
2024-01-11T23:19:17.070Z,3.92
2024-01-11T23:21:45.588Z,3.45
2024-01-11T23:24:14.728Z,3.28
2024-01-11T23:26:43.213Z,6.63
2024-01-11T23:29:11.690Z,3.13
2024-01-11T23:31:42.532Z,4.65
2024-01-11T23:34:12.005Z,3.70
2024-01-11T23:36:40.458Z,2.53
2024-01-11T23:39:09.143Z,4.75
2024-01-11T23:41:37.577Z,3.72
2024-01-11T23:44:06.383Z,3.72
2024-01-11T23:46:35.269Z,3.97
2024-01-11T23:49:05.957Z,3.67
2024-01-11T23:51:34.843Z,3.97
2024-01-11T23:54:03.388Z,2.38
2024-01-11T23:56:32.826Z,3.55
2024-01-11T23:59:01.236Z,3.17
